Surface Data

81.0 °F / 27.2 °C
E at 5 MPH
87%
76.8°F / 24.9 °C
29.79" (1008 mb)
7 mile(s)
overcast
2021.07.24 1740 UTC

Surface Data

Raw METARs

2021/07/24 17:40
PKWA 241740Z AUTO 09004KT 7SM -RA SCT017 BKN030 OVC065 27/25 A2979 RMK AO2 P0002 T02720249

Translated METAR

Kwajalein, Bucholz AAF, Kwajalein KMR ATOL Airport, Marshall Islands (PKWA) 08-43N 167-44E 2M
Jul 24, 2021 - 01:40 PM EDT / 2021.07.24 1740 UTC
Wind: from the E (090 degrees) at 5 MPH (4 KT):0
Visibility: 7 mile(s):0
Sky conditions: overcast
Weather: light rain
Precipitation last hour: 0.02 inches
Temperature: 81.0 F (27.2 C)
Dew Point: 76.8 F (24.9 C)
Relative Humidity: 87%
Pressure (altimeter): 29.79 in. Hg (1008 hPa)
ob: PKWA 241740Z AUTO 09004KT 7SM -RA SCT017 BKN030 OVC065 27/25 A2979 RMK AO2 P0002 T02720249
cycle: 17